Time;durP1;ratioP1;P1;durP2;ratioP2;P2;SDS_P1;SDS_P2;PMS_P1;PMS_P2;Temp;Humidity;BMP_temperature;BMP_pressure;BME280_temperature;BME280_humidity;BME280_pressure;Samples;Min_cycle;Max_cycle;Signal;HPM_P1;HPM_P2
2024/04/05 00:01:02;;;;;;;;;1.75;1.75;;;;;;;;4982755;27;92368;-75
2024/04/05 00:03:28;;;;;;;;;1.00;1.00;;;;;;;;4997097;27;92482;-78
2024/04/05 00:05:53;;;;;;;;;2.00;1.25;;;;;;;;4986931;27;92784;-75
2024/04/05 00:08:18;;;;;;;;;1.00;1.00;;;;;;;;4984550;27;95948;-76
2024/04/05 00:10:44;;;;;;;;;2.00;2.00;;;;;;;;4982954;28;92420;-70
2024/04/05 00:13:09;;;;;;;;;0.00;0.00;;;;;;;;4991459;27;92945;-77
2024/04/05 00:15:39;;;;;;;;;1.00;1.00;;;;;;;;4987765;27;97361;-77
2024/04/05 00:18:04;;;;;;;;;1.00;1.00;;;;;;;;4993491;27;94451;-75
2024/04/05 00:20:30;;;;;;;;;1.00;1.00;;;;;;;;4984008;27;92042;-78
2024/04/05 00:22:55;;;;;;;;;1.50;1.25;;;;;;;;4997851;27;92037;-77
2024/04/05 00:25:21;;;;;;;;;2.50;2.00;;;;;;;;4993315;27;92577;-76
2024/04/05 00:27:46;;;;;;;;;1.50;1.50;;;;;;;;4990547;27;94327;-79
2024/04/05 00:30:12;;;;;;;;;2.00;1.75;;;;;;;;4994179;27;92303;-81
2024/04/05 00:32:37;;;;;;;;;1.75;1.75;;;;;;;;4978668;27;91983;-81
2024/04/05 00:35:03;;;;;;;;;2.25;2.00;;;;;;;;4994306;27;93822;-75
2024/04/05 00:37:28;;;;;;;;;1.00;1.00;;;;;;;;4990443;27;94211;-77
2024/04/05 00:39:54;;;;;;;;;2.25;1.75;;;;;;;;4984632;27;92479;-79
2024/04/05 00:42:19;;;;;;;;;1.25;1.25;;;;;;;;4977489;27;94442;-77
2024/04/05 00:44:45;;;;;;;;;1.75;1.00;;;;;;;;4990812;27;92033;-79
2024/04/05 00:47:11;;;;;;;;;1.00;1.00;;;;;;;;4993814;27;94554;-79
2024/04/05 00:49:37;;;;;;;;;2.00;2.00;;;;;;;;4994972;27;93284;-81
2024/04/05 00:52:03;;;;;;;;;2.00;2.00;;;;;;;;4988599;27;92516;-78
2024/04/05 00:54:28;;;;;;;;;2.00;1.00;;;;;;;;4975084;27;92397;-81
2024/04/05 00:56:54;;;;;;;;;1.25;1.00;;;;;;;;4987818;27;94277;-79
2024/04/05 00:59:20;;;;;;;;;2.00;2.00;;;;;;;;4976886;27;92468;-81
2024/04/05 01:01:45;;;;;;;;;2.50;2.50;;;;;;;;4992752;27;92630;-79
2024/04/05 01:04:11;;;;;;;;;1.75;1.00;;;;;;;;4873831;27;92170;-82
2024/04/05 01:06:37;;;;;;;;;2.50;2.50;;;;;;;;4812780;27;93723;-81
2024/04/05 01:09:04;;;;;;;;;3.00;2.00;;;;;;;;4836469;28;94975;-80
2024/04/05 01:11:30;;;;;;;;;2.75;2.75;;;;;;;;4992942;27;93070;-77
2024/04/05 01:13:55;;;;;;;;;2.00;2.00;;;;;;;;4985123;27;91997;-79
2024/04/05 01:16:20;;;;;;;;;3.00;3.00;;;;;;;;4977333;27;92997;-80
2024/04/05 01:18:47;;;;;;;;;4.00;3.00;;;;;;;;4987456;27;92334;-77
2024/04/05 01:21:12;;;;;;;;;2.00;2.00;;;;;;;;4995674;27;92225;-79
2024/04/05 01:23:41;;;;;;;;;3.00;2.50;;;;;;;;4992003;27;92429;-76
2024/04/05 01:26:06;;;;;;;;;2.75;2.00;;;;;;;;4990531;27;94193;-77
2024/04/05 01:28:32;;;;;;;;;1.50;1.50;;;;;;;;4986503;27;94544;-79
2024/04/05 01:30:57;;;;;;;;;1.00;1.00;;;;;;;;4990758;27;94265;-81
2024/04/05 01:33:23;;;;;;;;;2.00;1.00;;;;;;;;4986561;28;92089;-79
2024/04/05 01:35:48;;;;;;;;;2.00;2.00;;;;;;;;4992213;27;94985;-77
2024/04/05 01:38:14;;;;;;;;;1.75;1.00;;;;;;;;4996359;27;92206;-77
2024/04/05 01:40:39;;;;;;;;;2.00;1.00;;;;;;;;4980229;27;95063;-78
2024/04/05 01:43:04;;;;;;;;;1.75;1.75;;;;;;;;4990089;27;94524;-78
2024/04/05 01:45:30;;;;;;;;;2.25;2.00;;;;;;;;4997996;27;92405;-80
2024/04/05 01:47:55;;;;;;;;;3.50;3.00;;;;;;;;4998746;27;92430;-80
2024/04/05 01:50:21;;;;;;;;;3.25;2.00;;;;;;;;4986301;27;91917;-78
2024/04/05 01:52:49;;;;;;;;;2.50;2.25;;;;;;;;4989450;27;92489;-79
2024/04/05 01:55:15;;;;;;;;;3.50;3.00;;;;;;;;4998134;27;94229;-78
2024/04/05 01:57:40;;;;;;;;;2.00;1.75;;;;;;;;5004468;27;92641;-77
2024/04/05 02:00:06;;;;;;;;;1.75;1.75;;;;;;;;4995321;27;91920;-80
2024/04/05 02:02:32;;;;;;;;;2.00;1.50;;;;;;;;4980201;27;92205;-76
2024/04/05 02:04:58;;;;;;;;;3.00;3.00;;;;;;;;4994258;27;93719;-78
2024/04/05 02:07:23;;;;;;;;;3.00;3.00;;;;;;;;4987300;28;92601;-79
2024/04/05 02:09:50;;;;;;;;;3.25;3.00;;;;;;;;4970059;27;95038;-80
2024/04/05 02:12:15;;;;;;;;;4.00;2.25;;;;;;;;4989627;27;91905;-80
2024/04/05 02:14:41;;;;;;;;;3.00;2.50;;;;;;;;4971656;27;94234;-79
2024/04/05 02:17:06;;;;;;;;;2.25;2.25;;;;;;;;4995880;27;92695;-80
2024/04/05 02:19:32;;;;;;;;;2.00;2.00;;;;;;;;4992546;27;92340;-81
2024/04/05 02:21:58;;;;;;;;;4.00;2.25;;;;;;;;4991220;28;92372;-77
2024/04/05 02:24:23;;;;;;;;;5.75;4.00;;;;;;;;4996504;27;94362;-80
2024/04/05 02:26:50;;;;;;;;;3.75;2.50;;;;;;;;4957719;27;92464;-80
2024/04/05 02:29:16;;;;;;;;;1.50;1.50;;;;;;;;4995622;27;92511;-73
2024/04/05 02:31:41;;;;;;;;;1.25;1.00;;;;;;;;4994157;27;92446;-77
2024/04/05 02:34:07;;;;;;;;;2.00;2.00;;;;;;;;4995925;27;94167;-78
2024/04/05 02:36:32;;;;;;;;;1.00;1.00;;;;;;;;4990695;27;92529;-79
2024/04/05 02:38:58;;;;;;;;;1.00;0.00;;;;;;;;4989566;27;92321;-76
2024/04/05 02:41:23;;;;;;;;;2.00;2.00;;;;;;;;4996711;28;92506;-79
2024/04/05 02:43:49;;;;;;;;;2.00;2.00;;;;;;;;4999053;27;94176;-80
2024/04/05 02:46:14;;;;;;;;;1.00;1.00;;;;;;;;4997014;27;91747;-77
2024/04/05 02:48:40;;;;;;;;;1.50;1.50;;;;;;;;4979506;28;92173;-78
2024/04/05 02:51:06;;;;;;;;;1.75;1.75;;;;;;;;4994551;27;93734;-81
2024/04/05 02:53:31;;;;;;;;;0.25;0.25;;;;;;;;4999368;27;93527;-80
2024/04/05 02:55:58;;;;;;;;;1.00;1.00;;;;;;;;4984181;28;92256;-80
2024/04/05 02:58:23;;;;;;;;;1.75;1.00;;;;;;;;4998657;27;92565;-80
2024/04/05 03:00:54;;;;;;;;;2.75;1.75;;;;;;;;4985669;27;94108;-78
2024/04/05 03:03:19;;;;;;;;;1.50;1.00;;;;;;;;4996151;28;94160;-76
2024/04/05 03:05:45;;;;;;;;;2.00;1.25;;;;;;;;4994930;27;92276;-77
2024/04/05 03:08:10;;;;;;;;;2.00;2.00;;;;;;;;4986011;28;91994;-80
2024/04/05 03:10:35;;;;;;;;;2.75;2.50;;;;;;;;4985076;27;92058;-71
2024/04/05 03:13:01;;;;;;;;;2.00;1.00;;;;;;;;4994657;27;94256;-79
2024/04/05 03:15:26;;;;;;;;;2.00;1.00;;;;;;;;5002152;27;92252;-81
2024/04/05 03:17:52;;;;;;;;;2.25;1.50;;;;;;;;4994178;27;92456;-81
2024/04/05 03:20:17;;;;;;;;;3.00;2.00;;;;;;;;4968694;27;93805;-78
2024/04/05 03:22:43;;;;;;;;;3.50;2.00;;;;;;;;4981254;27;94448;-80
2024/04/05 03:25:09;;;;;;;;;2.00;1.25;;;;;;;;4996912;27;92546;-81
2024/04/05 03:27:34;;;;;;;;;1.00;1.00;;;;;;;;4995063;27;92351;-81
2024/04/05 03:30:00;;;;;;;;;0.50;0.25;;;;;;;;4995352;28;92461;-82
2024/04/05 03:32:26;;;;;;;;;1.50;1.00;;;;;;;;4985991;28;94217;-82
2024/04/05 03:34:51;;;;;;;;;0.00;0.00;;;;;;;;4980106;27;92323;-82
2024/04/05 03:37:17;;;;;;;;;2.00;2.00;;;;;;;;4978587;27;92087;-82
2024/04/05 03:39:42;;;;;;;;;1.00;1.00;;;;;;;;4989235;27;97368;-80
2024/04/05 03:42:08;;;;;;;;;2.50;2.00;;;;;;;;4994553;27;94409;-78
2024/04/05 03:44:33;;;;;;;;;3.50;1.50;;;;;;;;4967907;27;91974;-81
2024/04/05 03:46:59;;;;;;;;;1.00;1.00;;;;;;;;4991555;27;93638;-82
2024/04/05 03:49:28;;;;;;;;;2.50;1.75;;;;;;;;5001313;27;92697;-81
2024/04/05 03:51:53;;;;;;;;;1.00;0.75;;;;;;;;4995965;27;95115;-83
2024/04/05 03:54:19;;;;;;;;;2.75;1.50;;;;;;;;5004364;27;92426;-82
2024/04/05 03:56:44;;;;;;;;;1.25;1.25;;;;;;;;4990211;27;92026;-80
2024/04/05 03:59:10;;;;;;;;;3.00;2.25;;;;;;;;4999994;28;92205;-83
2024/04/05 04:01:35;;;;;;;;;3.25;2.50;;;;;;;;4997717;27;93442;-82
2024/04/05 04:04:01;;;;;;;;;2.00;2.00;;;;;;;;5001617;28;92441;-82
2024/04/05 04:06:26;;;;;;;;;2.00;2.00;;;;;;;;5000175;27;91894;-83
2024/04/05 04:08:52;;;;;;;;;2.75;2.00;;;;;;;;4985360;27;92748;-82
2024/04/05 04:11:17;;;;;;;;;1.00;1.00;;;;;;;;4842731;27;94151;-83
2024/04/05 04:13:43;;;;;;;;;2.50;2.00;;;;;;;;4999504;27;92433;-84
2024/04/05 04:16:09;;;;;;;;;0.25;0.25;;;;;;;;4992670;28;92263;-84
2024/04/05 04:18:35;;;;;;;;;1.00;1.00;;;;;;;;4997256;27;91911;-83
2024/04/05 04:21:02;;;;;;;;;1.00;1.00;;;;;;;;4987221;27;94763;-82
2024/04/05 04:23:28;;;;;;;;;2.00;2.00;;;;;;;;5000167;27;92494;-81
2024/04/05 04:25:55;;;;;;;;;1.00;1.00;;;;;;;;4994435;27;93540;-83
2024/04/05 04:28:22;;;;;;;;;2.00;1.00;;;;;;;;4993772;27;93967;-83
2024/04/05 04:30:47;;;;;;;;;0.75;0.25;;;;;;;;4978045;27;94887;-81
2024/04/05 04:33:14;;;;;;;;;1.00;1.00;;;;;;;;4990314;27;92550;-82
2024/04/05 04:35:43;;;;;;;;;2.50;2.00;;;;;;;;4983367;27;91922;-82
2024/04/05 04:38:09;;;;;;;;;2.25;2.00;;;;;;;;4950969;27;92649;-82
2024/04/05 04:40:34;;;;;;;;;2.00;2.00;;;;;;;;4989432;27;94142;-82
2024/04/05 04:43:00;;;;;;;;;1.00;1.00;;;;;;;;4990415;28;92681;-82
2024/04/05 04:45:25;;;;;;;;;2.00;2.00;;;;;;;;4951383;27;94922;-74
2024/04/05 04:47:50;;;;;;;;;2.00;2.00;;;;;;;;4983344;28;92085;-83
2024/04/05 04:50:16;;;;;;;;;2.00;1.00;;;;;;;;4985161;27;94308;-69
2024/04/05 04:52:41;;;;;;;;;1.00;1.00;;;;;;;;4986883;28;91949;-82
2024/04/05 04:55:10;;;;;;;;;0.75;0.75;;;;;;;;4988966;28;92145;-82
2024/04/05 04:57:36;;;;;;;;;2.00;1.00;;;;;;;;4958278;28;96339;-81
2024/04/05 05:00:02;;;;;;;;;0.50;0.00;;;;;;;;4983630;27;94278;-83
2024/04/05 05:02:28;;;;;;;;;1.00;0.75;;;;;;;;4996110;27;92517;-81
2024/04/05 05:04:53;;;;;;;;;2.00;2.00;;;;;;;;4997295;27;93074;-82
2024/04/05 05:07:19;;;;;;;;;2.00;1.00;;;;;;;;4988560;27;92281;-83
2024/04/05 05:09:44;;;;;;;;;1.00;1.00;;;;;;;;4991092;27;94431;-80
2024/04/05 05:12:10;;;;;;;;;1.75;1.00;;;;;;;;5002863;27;92008;-82
2024/04/05 05:14:35;;;;;;;;;2.00;2.00;;;;;;;;4992135;27;92301;-81
2024/04/05 05:17:01;;;;;;;;;1.25;1.25;;;;;;;;4992307;27;93151;-82
2024/04/05 05:19:26;;;;;;;;;3.75;3.00;;;;;;;;4983641;28;93676;-83
2024/04/05 05:21:52;;;;;;;;;1.25;1.25;;;;;;;;4995320;27;92008;-80
2024/04/05 05:24:17;;;;;;;;;4.00;2.25;;;;;;;;4998969;27;94923;-79
2024/04/05 05:26:43;;;;;;;;;1.50;1.00;;;;;;;;4996592;27;96529;-81
2024/04/05 05:29:08;;;;;;;;;3.00;3.00;;;;;;;;4999354;27;94395;-82
2024/04/05 05:31:34;;;;;;;;;2.50;2.00;;;;;;;;4989966;27;92351;-82
2024/04/05 05:33:59;;;;;;;;;1.25;1.25;;;;;;;;4979329;27;91969;-75
2024/04/05 05:36:24;;;;;;;;;1.00;1.00;;;;;;;;4976378;27;91982;-81
2024/04/05 05:38:50;;;;;;;;;3.50;3.00;;;;;;;;4991095;27;94848;-79
2024/04/05 05:41:15;;;;;;;;;4.00;4.00;;;;;;;;4994138;27;91963;-77
2024/04/05 05:43:41;;;;;;;;;3.00;2.00;;;;;;;;4972684;27;93405;-78
2024/04/05 05:46:07;;;;;;;;;4.00;2.00;;;;;;;;4961349;27;91974;-76
2024/04/05 05:48:32;;;;;;;;;2.75;2.75;;;;;;;;4967933;27;92634;-78
2024/04/05 05:50:58;;;;;;;;;2.00;2.00;;;;;;;;4971472;27;92142;-79
2024/04/05 05:53:23;;;;;;;;;2.00;2.00;;;;;;;;4987885;27;92315;-73
2024/04/05 05:55:49;;;;;;;;;3.00;2.50;;;;;;;;4993081;27;92963;-76
2024/04/05 05:58:15;;;;;;;;;2.25;2.00;;;;;;;;4988218;27;94173;-81
2024/04/05 06:00:40;;;;;;;;;2.50;2.50;;;;;;;;4979852;27;97463;-80
2024/04/05 06:03:07;;;;;;;;;2.00;2.00;;;;;;;;4997539;27;91952;-78
2024/04/05 06:05:32;;;;;;;;;3.00;2.75;;;;;;;;4973830;27;92094;-78
2024/04/05 06:07:58;;;;;;;;;1.00;1.00;;;;;;;;4984233;28;94347;-82
2024/04/05 06:10:24;;;;;;;;;4.25;3.00;;;;;;;;4972831;27;92407;-82
2024/04/05 06:12:49;;;;;;;;;1.25;1.25;;;;;;;;4980131;27;92695;-81
2024/04/05 06:15:14;;;;;;;;;2.00;2.00;;;;;;;;4948447;27;93086;-79
2024/04/05 06:17:40;;;;;;;;;2.00;2.00;;;;;;;;4978870;27;94518;-79
2024/04/05 06:20:06;;;;;;;;;1.00;1.00;;;;;;;;4997340;28;93255;-78
2024/04/05 06:22:32;;;;;;;;;1.25;1.25;;;;;;;;4999103;27;92374;-77
2024/04/05 06:24:58;;;;;;;;;1.75;1.75;;;;;;;;4992816;27;92528;-77
2024/04/05 06:27:23;;;;;;;;;1.00;0.25;;;;;;;;4988901;27;94272;-70
2024/04/05 06:29:49;;;;;;;;;1.00;1.00;;;;;;;;4990817;28;92711;-80
2024/04/05 06:32:15;;;;;;;;;2.00;1.00;;;;;;;;5000936;27;92773;-78
2024/04/05 06:34:41;;;;;;;;;1.00;1.00;;;;;;;;4989324;27;93942;-77
2024/04/05 06:37:06;;;;;;;;;2.00;2.00;;;;;;;;4978389;27;92243;-78
2024/04/05 06:39:32;;;;;;;;;1.50;1.50;;;;;;;;4969661;28;95852;-75
2024/04/05 06:41:58;;;;;;;;;1.00;1.00;;;;;;;;4990819;27;94479;-75
2024/04/05 06:44:23;;;;;;;;;2.25;2.00;;;;;;;;4996439;27;94033;-74
2024/04/05 06:46:50;;;;;;;;;2.00;2.00;;;;;;;;4992435;27;98941;-77
2024/04/05 06:49:15;;;;;;;;;1.00;1.00;;;;;;;;4993907;27;93609;-78
2024/04/05 06:51:41;;;;;;;;;1.00;1.00;;;;;;;;4976813;27;93170;-78
2024/04/05 06:54:06;;;;;;;;;2.75;2.75;;;;;;;;4988244;27;92331;-73
2024/04/05 06:56:31;;;;;;;;;1.75;1.75;;;;;;;;4978518;28;94179;-74
2024/04/05 06:58:57;;;;;;;;;1.75;1.00;;;;;;;;4989550;28;91975;-75
2024/04/05 07:01:22;;;;;;;;;2.50;2.50;;;;;;;;4978290;27;94637;-74
2024/04/05 07:03:48;;;;;;;;;0.25;0.25;;;;;;;;4952026;27;92386;-73
2024/04/05 07:06:13;;;;;;;;;2.00;1.00;;;;;;;;4967731;28;94089;-76
2024/04/05 07:08:39;;;;;;;;;0.25;0.25;;;;;;;;4987473;27;92445;-75
2024/04/05 07:11:06;;;;;;;;;1.00;0.75;;;;;;;;4975878;27;93744;-77
2024/04/05 07:13:32;;;;;;;;;2.75;1.50;;;;;;;;4970662;27;94468;-78
2024/04/05 07:15:58;;;;;;;;;3.00;2.50;;;;;;;;4989635;27;94237;-76
2024/04/05 07:18:26;;;;;;;;;2.00;2.00;;;;;;;;4971428;28;92299;-76
2024/04/05 07:20:54;;;;;;;;;2.00;2.00;;;;;;;;4935404;28;93007;-74
2024/04/05 07:23:19;;;;;;;;;3.50;2.50;;;;;;;;4926673;27;92613;-79
2024/04/05 07:25:45;;;;;;;;;1.00;1.00;;;;;;;;4847916;27;94190;-75
2024/04/05 07:28:11;;;;;;;;;1.75;1.75;;;;;;;;4793175;27;92369;-78
2024/04/05 07:30:37;;;;;;;;;2.00;1.00;;;;;;;;4962341;28;93022;-75
2024/04/05 07:33:02;;;;;;;;;2.75;2.00;;;;;;;;4996980;27;92649;-73
2024/04/05 07:35:29;;;;;;;;;1.75;1.00;;;;;;;;4993405;27;98724;-80
2024/04/05 07:37:55;;;;;;;;;1.00;1.00;;;;;;;;4992574;27;92422;-78
2024/04/05 07:40:21;;;;;;;;;1.25;1.25;;;;;;;;4975433;27;93787;-79
2024/04/05 07:42:48;;;;;;;;;1.00;1.00;;;;;;;;4994149;27;92416;-76
2024/04/05 07:45:14;;;;;;;;;1.00;1.00;;;;;;;;4986015;27;94245;-76
2024/04/05 07:47:39;;;;;;;;;2.25;2.00;;;;;;;;4979376;27;92702;-77
2024/04/05 07:50:05;;;;;;;;;1.00;1.00;;;;;;;;5001456;28;92553;-77
2024/04/05 07:52:30;;;;;;;;;4.00;2.75;;;;;;;;4982200;28;92331;-78
2024/04/05 07:54:56;;;;;;;;;2.75;2.00;;;;;;;;4972563;27;94267;-78
2024/04/05 07:57:21;;;;;;;;;3.00;2.00;;;;;;;;4994486;27;92427;-76
2024/04/05 07:59:47;;;;;;;;;2.25;2.25;;;;;;;;4947074;27;92764;-78
2024/04/05 08:02:12;;;;;;;;;3.00;1.75;;;;;;;;4984065;27;93793;-77
2024/04/05 08:04:38;;;;;;;;;2.00;2.00;;;;;;;;4979634;28;95282;-74
2024/04/05 08:07:03;;;;;;;;;1.00;1.00;;;;;;;;4990462;28;91932;-77
2024/04/05 08:09:29;;;;;;;;;1.50;1.50;;;;;;;;4972381;28;93584;-78
2024/04/05 08:11:55;;;;;;;;;1.00;1.00;;;;;;;;4961754;28;94763;-77
2024/04/05 08:14:20;;;;;;;;;1.00;1.00;;;;;;;;4864267;27;94383;-77
2024/04/05 08:16:45;;;;;;;;;3.50;2.00;;;;;;;;4774142;27;93372;-75
2024/04/05 08:19:11;;;;;;;;;1.00;1.00;;;;;;;;4780251;27;92583;-74
2024/04/05 08:21:36;;;;;;;;;1.75;1.00;;;;;;;;4618085;27;93547;-78
2024/04/05 08:24:02;;;;;;;;;0.67;0.00;;;;;;;;4752070;27;94274;-76
2024/04/05 08:26:28;;;;;;;;;1.67;1.00;;;;;;;;4769218;27;92348;-74
2024/04/05 08:28:54;;;;;;;;;1.00;1.00;;;;;;;;4885433;27;92090;-77
2024/04/05 08:31:19;;;;;;;;;0.00;0.00;;;;;;;;4593068;27;92513;-76
2024/04/05 08:33:45;;;;;;;;;1.00;1.00;;;;;;;;4862950;28;94295;-74
2024/04/05 08:36:10;;;;;;;;;2.00;1.00;;;;;;;;4785540;28;92521;-77
2024/04/05 08:38:36;;;;;;;;;1.00;1.00;;;;;;;;4745904;27;93543;-78
2024/04/05 08:41:05;;;;;;;;;4.00;1.00;;;;;;;;4713270;27;92058;-75
2024/04/05 08:43:33;;;;;;;;;1.00;0.67;;;;;;;;4802367;28;94328;-76
2024/04/05 08:45:59;;;;;;;;;1.00;1.00;;;;;;;;4830954;27;92396;-79
2024/04/05 08:48:29;;;;;;;;;0.33;0.33;;;;;;;;4981950;27;93958;-78
2024/04/05 08:50:55;;;;;;;;;0.00;0.00;;;;;;;;4989129;27;94918;-78
2024/04/05 08:53:20;;;;;;;;;1.00;1.00;;;;;;;;5001170;27;94241;-77
2024/04/05 08:55:46;;;;;;;;;2.00;2.00;;;;;;;;4995817;27;93451;-77
2024/04/05 08:58:13;;;;;;;;;2.33;2.00;;;;;;;;4983248;27;93289;-78
2024/04/05 09:00:39;;;;;;;;;1.00;1.00;;;;;;;;4985533;27;99098;-78
2024/04/05 09:03:05;;;;;;;;;1.00;1.00;;;;;;;;4988722;27;95572;-76
2024/04/05 09:05:31;;;;;;;;;3.67;2.00;;;;;;;;4987585;27;95080;-80
2024/04/05 09:08:03;;;;;;;;;2.00;2.00;;;;;;;;4969727;27;93800;-81
2024/04/05 09:10:28;;;;;;;;;0.00;0.00;;;;;;;;4946131;27;93763;-76
2024/04/05 09:12:57;;;;;;;;;0.00;0.00;;;;;;;;4985519;27;95752;-77
2024/04/05 09:15:24;;;;;;;;;3.33;1.00;;;;;;;;4970164;27;94040;-76
2024/04/05 09:17:50;;;;;;;;;3.00;2.67;;;;;;;;4858686;28;93659;-77
2024/04/05 09:20:24;;;;;;;;;2.00;1.00;;;;;;;;4900137;27;95329;-73
2024/04/05 09:22:59;;;;;;;;;2.33;1.00;;;;;;;;4929236;27;95695;-74
2024/04/05 09:25:25;;;;;;;;;1.67;1.00;;;;;;;;4889794;27;93711;-75
2024/04/05 09:27:51;;;;;;;;;2.00;2.00;;;;;;;;4712582;28;93662;-78
2024/04/05 09:30:17;;;;;;;;;2.00;2.00;;;;;;;;4412013;28;96363;-75
2024/04/05 09:32:47;;;;;;;;;1.00;1.00;;;;;;;;4571346;28;94687;-77
2024/04/05 09:35:15;;;;;;;;;2.67;1.67;;;;;;;;4777431;28;93372;-75
2024/04/05 09:37:41;;;;;;;;;1.00;1.00;;;;;;;;4909325;28;95355;-77
2024/04/05 09:40:10;;;;;;;;;2.00;2.00;;;;;;;;4865254;27;93468;-76
2024/04/05 09:42:36;;;;;;;;;1.00;0.67;;;;;;;;4881846;28;96355;-75
2024/04/05 09:45:02;;;;;;;;;1.00;0.67;;;;;;;;5017587;28;93313;-79
2024/04/05 09:47:31;;;;;;;;;1.67;1.00;;;;;;;;5024575;28;93290;-77
2024/04/05 09:49:58;;;;;;;;;1.00;1.00;;;;;;;;4677662;27;94750;-76
2024/04/05 09:52:28;;;;;;;;;1.67;1.00;;;;;;;;4741615;27;95609;-77
2024/04/05 09:54:55;;;;;;;;;2.00;1.00;;;;;;;;4557085;27;94432;-76
2024/04/05 09:57:21;;;;;;;;;2.00;1.00;;;;;;;;4735812;27;93735;-77
2024/04/05 09:59:48;;;;;;;;;2.00;2.00;;;;;;;;4846312;28;94670;-82
2024/04/05 10:02:17;;;;;;;;;1.00;1.00;;;;;;;;5019372;27;96326;-78
2024/04/05 10:04:44;;;;;;;;;1.00;1.00;;;;;;;;4998023;27;93589;-78
2024/04/05 10:07:11;;;;;;;;;1.33;1.33;;;;;;;;4990748;27;93789;-78
2024/04/05 10:09:37;;;;;;;;;0.00;0.00;;;;;;;;4997473;27;93632;-81
2024/04/05 10:12:12;;;;;;;;;0.33;0.33;;;;;;;;4975084;27;95584;-77
2024/04/05 10:14:38;;;;;;;;;1.00;1.00;;;;;;;;4995358;27;93420;-77
2024/04/05 10:17:11;;;;;;;;;1.67;1.67;;;;;;;;4993803;28;93326;-79
2024/04/05 10:19:37;;;;;;;;;3.00;3.00;;;;;;;;4997102;27;94724;-77
2024/04/05 10:22:19;;;;;;;;;2.00;1.00;;;;;;;;4986437;27;95688;-75
2024/04/05 10:24:45;;;;;;;;;2.75;2.75;;;;;;;;4994638;27;93374;-79
2024/04/05 10:27:21;;;;;;;;;2.00;2.00;;;;;;;;4998169;27;93248;-78
2024/04/05 10:29:56;;;;;;;;;2.67;2.00;;;;;;;;4999615;27;94421;-78
2024/04/05 10:32:23;;;;;;;;;1.00;1.00;;;;;;;;4999550;27;99620;-70
2024/04/05 10:34:48;;;;;;;;;1.33;1.33;;;;;;;;4997908;27;93661;-77
2024/04/05 10:37:16;;;;;;;;;0.67;0.67;;;;;;;;4998822;27;95592;-77
2024/04/05 10:39:42;;;;;;;;;1.00;1.00;;;;;;;;4992216;27;93610;-76
2024/04/05 10:42:07;;;;;;;;;0.33;0.33;;;;;;;;4986349;27;96376;-77
2024/04/05 10:44:33;;;;;;;;;1.00;1.00;;;;;;;;4996908;28;94430;-76
2024/04/05 10:46:59;;;;;;;;;1.00;1.00;;;;;;;;4996030;27;93558;-78
2024/04/05 10:49:25;;;;;;;;;0.00;0.00;;;;;;;;4992073;27;95022;-78
2024/04/05 10:51:58;;;;;;;;;0.00;0.00;;;;;;;;4994875;27;96027;-78
2024/04/05 10:54:24;;;;;;;;;1.00;0.33;;;;;;;;4990247;27;94328;-79
2024/04/05 10:56:49;;;;;;;;;0.00;0.00;;;;;;;;4995373;27;93382;-77
2024/04/05 10:59:17;;;;;;;;;0.67;0.00;;;;;;;;4995477;27;93654;-80
2024/04/05 11:01:43;;;;;;;;;0.00;0.00;;;;;;;;4997355;27;95692;-79
2024/04/05 11:04:12;;;;;;;;;1.67;1.00;;;;;;;;4988240;27;93824;-75
2024/04/05 11:06:38;;;;;;;;;0.00;0.00;;;;;;;;4991282;27;93380;-76
2024/04/05 11:09:06;;;;;;;;;0.00;0.00;;;;;;;;4995099;27;94317;-76
2024/04/05 11:11:31;;;;;;;;;1.00;0.67;;;;;;;;4999286;27;94623;-75
2024/04/05 11:14:06;;;;;;;;;0.00;0.00;;;;;;;;4992266;27;93774;-75
2024/04/05 11:16:32;;;;;;;;;1.00;1.00;;;;;;;;4996219;27;94729;-77
2024/04/05 11:18:58;;;;;;;;;0.00;0.00;;;;;;;;4999540;27;93878;-77
2024/04/05 11:21:23;;;;;;;;;1.33;1.00;;;;;;;;4991806;27;95535;-74
2024/04/05 11:23:54;;;;;;;;;2.00;1.00;;;;;;;;4988597;28;93848;-76
2024/04/05 11:26:21;;;;;;;;;1.00;1.00;;;;;;;;4987727;27;94584;-77
2024/04/05 11:28:47;;;;;;;;;1.67;1.67;;;;;;;;4989725;27;94313;-76
2024/04/05 11:31:16;;;;;;;;;1.33;0.67;;;;;;;;4993227;27;95432;-74
2024/04/05 11:33:41;;;;;;;;;2.00;1.00;;;;;;;;4999174;27;93369;-76
2024/04/05 11:36:07;;;;;;;;;1.00;1.00;;;;;;;;4988957;27;93586;-79
2024/04/05 11:38:33;;;;;;;;;0.67;0.67;;;;;;;;4990947;27;93597;-79
2024/04/05 11:40:58;;;;;;;;;2.00;1.00;;;;;;;;4993237;27;95680;-75
2024/04/05 11:43:24;;;;;;;;;1.00;1.00;;;;;;;;4995541;27;93646;-76
2024/04/05 11:45:50;;;;;;;;;1.00;1.00;;;;;;;;4998339;27;94279;-79
2024/04/05 11:48:15;;;;;;;;;1.00;1.00;;;;;;;;4981781;28;93990;-75
2024/04/05 11:50:41;;;;;;;;;2.00;1.00;;;;;;;;4996228;27;95624;-76
2024/04/05 11:53:06;;;;;;;;;1.00;0.00;;;;;;;;4999670;27;93950;-81
2024/04/05 11:55:32;;;;;;;;;1.00;0.67;;;;;;;;4992086;27;93352;-76
2024/04/05 11:57:58;;;;;;;;;1.00;1.00;;;;;;;;4984548;27;93696;-78
2024/04/05 12:00:24;;;;;;;;;0.00;0.00;;;;;;;;4991298;27;94353;-76
2024/04/05 12:02:50;;;;;;;;;2.00;1.00;;;;;;;;4993673;28;93830;-79
2024/04/05 12:05:16;;;;;;;;;2.33;1.67;;;;;;;;4988968;27;93573;-77
2024/04/05 12:07:42;;;;;;;;;3.33;2.00;;;;;;;;4999416;27;95604;-79
2024/04/05 12:10:08;;;;;;;;;2.00;2.00;;;;;;;;4981356;27;95698;-75
2024/04/05 12:12:33;;;;;;;;;1.00;0.67;;;;;;;;4995609;27;93379;-77
2024/04/05 12:14:59;;;;;;;;;0.00;0.00;;;;;;;;4997131;27;93380;-79
2024/04/05 12:17:24;;;;;;;;;0.00;0.00;;;;;;;;4995944;27;93577;-75
2024/04/05 12:19:50;;;;;;;;;1.00;1.00;;;;;;;;4994825;28;95503;-79
2024/04/05 12:22:15;;;;;;;;;1.00;1.00;;;;;;;;4979613;27;93283;-76
2024/04/05 12:24:41;;;;;;;;;1.00;1.00;;;;;;;;4995293;27;93337;-77
2024/04/05 12:27:06;;;;;;;;;0.00;0.00;;;;;;;;4990510;28;93606;-75
2024/04/05 12:29:32;;;;;;;;;0.67;0.67;;;;;;;;4990603;28;95812;-80
2024/04/05 12:31:57;;;;;;;;;1.00;1.00;;;;;;;;4991312;27;93818;-78
2024/04/05 12:34:26;;;;;;;;;0.67;0.67;;;;;;;;4989574;27;93564;-76
2024/04/05 12:36:51;;;;;;;;;1.00;1.00;;;;;;;;4992120;28;96400;-77
2024/04/05 12:39:28;;;;;;;;;2.00;0.67;;;;;;;;4993591;27;95596;-77
2024/04/05 12:41:54;;;;;;;;;3.67;1.00;;;;;;;;4997919;27;96479;-76
2024/04/05 12:44:19;;;;;;;;;1.00;0.00;;;;;;;;4987118;27;93495;-76
2024/04/05 12:46:50;;;;;;;;;1.00;1.00;;;;;;;;4989566;27;94052;-79
2024/04/05 12:49:16;;;;;;;;;0.00;0.00;;;;;;;;4992461;27;95506;-76
2024/04/05 12:51:42;;;;;;;;;0.00;0.00;;;;;;;;4995135;27;93666;-75
2024/04/05 12:54:07;;;;;;;;;0.67;0.67;;;;;;;;4982946;28;93674;-76
2024/04/05 12:56:32;;;;;;;;;2.00;1.00;;;;;;;;5003503;27;93571;-79
2024/04/05 12:58:58;;;;;;;;;1.00;1.00;;;;;;;;4987693;27;95582;-75
2024/04/05 13:01:25;;;;;;;;;0.00;0.00;;;;;;;;4995770;27;93613;-79
2024/04/05 13:03:51;;;;;;;;;0.00;0.00;;;;;;;;4990943;28;93706;-77
2024/04/05 13:06:19;;;;;;;;;0.00;0.00;;;;;;;;4967663;27;94161;-80
2024/04/05 13:08:45;;;;;;;;;1.67;1.67;;;;;;;;4995809;27;93764;-78
2024/04/05 13:11:11;;;;;;;;;2.00;1.00;;;;;;;;4992848;27;93440;-77
2024/04/05 13:13:40;;;;;;;;;0.00;0.00;;;;;;;;4997027;27;93579;-79
2024/04/05 13:16:06;;;;;;;;;1.00;1.00;;;;;;;;4968666;27;93696;-79
2024/04/05 13:18:32;;;;;;;;;1.00;0.00;;;;;;;;4989497;27;95642;-79
2024/04/05 13:21:06;;;;;;;;;1.00;1.00;;;;;;;;4990988;27;93335;-77
2024/04/05 13:23:39;;;;;;;;;1.00;1.00;;;;;;;;4993569;27;93752;-78
2024/04/05 13:26:12;;;;;;;;;0.00;0.00;;;;;;;;4984335;27;93367;-76
2024/04/05 13:28:37;;;;;;;;;1.00;0.00;;;;;;;;4997835;27;95795;-76
2024/04/05 13:31:09;;;;;;;;;0.00;0.00;;;;;;;;4995310;28;93321;-77
2024/04/05 13:33:36;;;;;;;;;2.00;2.00;;;;;;;;5000850;27;93538;-84
2024/04/05 13:36:08;;;;;;;;;1.00;0.00;;;;;;;;4982511;27;94049;-76
2024/04/05 13:38:34;;;;;;;;;1.00;0.00;;;;;;;;4999377;27;95589;-75
2024/04/05 13:41:00;;;;;;;;;0.33;0.33;;;;;;;;4991529;27;93704;-81
2024/04/05 13:43:26;;;;;;;;;0.67;0.67;;;;;;;;4993620;27;93629;-75
2024/04/05 13:46:02;;;;;;;;;2.33;0.67;;;;;;;;4993655;27;93284;-79
2024/04/05 13:48:28;;;;;;;;;2.00;0.00;;;;;;;;5000711;27;100131;-74
2024/04/05 13:50:54;;;;;;;;;0.00;0.00;;;;;;;;4998084;27;93780;-75
2024/04/05 13:53:19;;;;;;;;;0.67;0.67;;;;;;;;4992386;28;93525;-79
2024/04/05 13:55:45;;;;;;;;;1.00;1.00;;;;;;;;4993125;27;94734;-76
2024/04/05 13:58:10;;;;;;;;;1.00;1.00;;;;;;;;4961566;27;95633;-76
2024/04/05 14:00:38;;;;;;;;;0.00;0.00;;;;;;;;5000215;28;93363;-76
2024/04/05 14:03:03;;;;;;;;;1.00;0.00;;;;;;;;4969145;27;95711;-77
2024/04/05 14:05:29;;;;;;;;;1.00;1.00;;;;;;;;4993313;27;93592;-78
2024/04/05 14:07:54;;;;;;;;;1.00;1.00;;;;;;;;4995785;27;95608;-79
2024/04/05 14:10:20;;;;;;;;;0.67;0.67;;;;;;;;4994473;27;93346;-77
2024/04/05 14:12:45;;;;;;;;;1.00;1.00;;;;;;;;4984007;27;93941;-76
2024/04/05 14:15:11;;;;;;;;;1.33;1.33;;;;;;;;4978438;27;93554;-78
2024/04/05 14:17:36;;;;;;;;;1.33;1.33;;;;;;;;5001166;27;94747;-77
2024/04/05 14:20:02;;;;;;;;;1.67;1.00;;;;;;;;4999017;27;93244;-75
2024/04/05 14:22:27;;;;;;;;;2.67;1.67;;;;;;;;4994182;27;93707;-77
2024/04/05 14:24:53;;;;;;;;;0.67;0.67;;;;;;;;4991308;28;93905;-76
2024/04/05 14:27:18;;;;;;;;;1.00;1.00;;;;;;;;4980683;27;95629;-75
2024/04/05 14:29:45;;;;;;;;;1.67;1.00;;;;;;;;4992274;28;99194;-76
2024/04/05 14:32:10;;;;;;;;;2.00;2.00;;;;;;;;4995185;27;93815;-75
2024/04/05 14:34:37;;;;;;;;;2.00;1.00;;;;;;;;4992639;28;93722;-76
2024/04/05 14:37:05;;;;;;;;;1.00;1.00;;;;;;;;4995279;27;95745;-73